This is the latest recevied weather packets stored in our database for station/object HA6IFZ-10. If no packets are shown the sender has not sent any weather packets the latest 10 day(s).
| Time | Temp. | Humidity | Pressure | Rain* | Wind** | Luminosity | Snow |
|---|---|---|---|---|---|---|---|
| 1777712981 | 18.33° C | 35% | 1031.8 hPa | - | - | - | - |
| 1777712081 | 18.33° C | 37% | 1031.8 hPa | - | - | - | - |
| 1777711181 | 18.33° C | 36% | 1032.1 hPa | - | - | - | - |
| 1777710281 | 18.33° C | 38% | 1032 hPa | - | - | - | - |
| 1777709381 | 18.33° C | 37% | 1032.3 hPa | - | - | - | - |
| 1777708481 | 17.78° C | 36% | 1032.3 hPa | - | - | - | - |
| 1777707581 | 17.78° C | 36% | 1032.3 hPa | - | - | - | - |
| 1777706681 | 17.78° C | 36% | 1032.3 hPa | - | - | - | - |
| 1777705780 | 17.22° C | 35% | 1032.3 hPa | - | - | - | - |
| 1777704880 | 17.22° C | 35% | 1032.3 hPa | - | - | - | - |
| 1777703980 | 17.78° C | 36% | 1032.3 hPa | - | - | - | - |
| 1777703080 | 18.33° C | 35% | 1032.1 hPa | - | - | - | - |
| 1777702180 | 17.78° C | 34% | 1032.1 hPa | - | - | - | - |
| 1777701280 | 18.33° C | 34% | 1032.1 hPa | - | - | - | - |
| 1777700379 | 22.78° C | 26% | 1031.8 hPa | - | - | - | - |
| 1777699479 | 21.67° C | 28% | 1031.9 hPa | - | - | - | - |
| 1777698579 | 21.67° C | 30% | 1031.8 hPa | - | - | - | - |
| 1777697679 | 21.11° C | 30% | 1031.7 hPa | - | - | - | - |
| 1777696779 | 19.44° C | 33% | 1031.8 hPa | - | - | - | - |
| 1777695878 | 13.33° C | 47% | 1031.8 hPa | - | - | - | - |
| 1777694563 | 8.89° C | 61% | 1031.9 hPa | - | - | - | - |
| 1777693662 | 8.89° C | 62% | 1032 hPa | - | - | - | - |
| 1777692762 | 8.89° C | 62% | 1032 hPa | - | - | - | - |
| 1777691862 | 9.44° C | 61% | 1031.8 hPa | - | - | - | - |
| 1777690962 | 9.44° C | 61% | 1031.9 hPa | - | - | - | - |
* Rain since midnight (hover to see other rain measurements)
** Current wind speed in m/s (hover to see current wind gust speed)